This is the latest recevied weather packets stored in our database for station/object HS6BUE-3. If no packets are shown the sender has not sent any weather packets the latest 10 day(s).
| Time | Temp. | Humidity | Pressure | Rain* | Wind** | Luminosity | Snow |
|---|---|---|---|---|---|---|---|
| 1776997893 | 27.78° C | 42% | 1004 hPa | - | - | 0 W/m² | - |
| 1776997271 | 27.78° C | 41% | 1004 hPa | - | - | 0 W/m² | - |
| 1776996648 | 27.78° C | 41% | 1004 hPa | - | - | 0 W/m² | - |
| 1776996025 | 27.78° C | 41% | 1004 hPa | - | - | 0 W/m² | - |
| 1776995402 | 27.22° C | 40% | 1004 hPa | - | - | 0 W/m² | - |
| 1776994780 | 27.78° C | 42% | 1004 hPa | - | - | 0 W/m² | - |
| 1776994157 | 27.78° C | 43% | 1004 hPa | - | - | 0 W/m² | - |
| 1776993535 | 27.78° C | 43% | 1004 hPa | - | - | 0 W/m² | - |
| 1776992912 | 27.78° C | 41% | 1004 hPa | - | - | 0 W/m² | - |
| 1776992289 | 28.33° C | 42% | 1004 hPa | - | - | 0 W/m² | - |
| 1776991667 | 28.33° C | 40% | 1003 hPa | - | - | 0 W/m² | - |
| 1776991044 | 30° C | 42% | 1003 hPa | - | - | 0 W/m² | - |
| 1776990421 | 31.67° C | 53% | 1003 hPa | - | - | 0 W/m² | - |
| 1776989799 | 32.22° C | 56% | 1003 hPa | - | - | 0 W/m² | - |
| 1776989176 | 32.22° C | 56% | 1003 hPa | - | - | 0 W/m² | - |
| 1776988553 | 32.22° C | 55% | 1003 hPa | - | - | 0 W/m² | - |
| 1776987930 | 31.67° C | 55% | 1003 hPa | - | - | 0 W/m² | - |
| 1776987308 | 31.67° C | 56% | 1002 hPa | - | - | 0 W/m² | - |
| 1776986685 | 31.67° C | 55% | 1002 hPa | - | - | 0 W/m² | - |
| 1776986063 | 31.67° C | 53% | 1002 hPa | - | - | 0 W/m² | - |
| 1776985440 | 32.22° C | 58% | 1002 hPa | - | - | 0 W/m² | - |
| 1776984817 | 32.22° C | 59% | 1002 hPa | - | - | 0 W/m² | - |
| 1776984195 | 32.22° C | 59% | 1002 hPa | - | - | 0 W/m² | - |
| 1776983572 | 32.22° C | 59% | 1002 hPa | - | - | 0 W/m² | - |
| 1776982949 | 32.22° C | 59% | 1002 hPa | - | - | 0 W/m² | - |
* Rain since midnight (hover to see other rain measurements)
** Current wind speed in m/s (hover to see current wind gust speed)